Latest Weather Observations for Kowanyama

IDQ60801

Issued at 8:12 am EST Friday 10 April 2020 (issued every 10 minutes, with the page automatically refreshed every 10 minutes)

About weather observations | Map of weather stations | Latest weather observations for QLD | Other Formats
Station Details ID: 029038 Name: KOWANYAMA AIRPORT Lat: -15.48 Lon: 141.75 Height: 9.6 m
Data from the previous 72 hours. | See also: Recent months at Kowanyama
Date/Time
EST
Temp
°C
App
Temp
°C
Dew
Point
°C
Rel
Hum
%
Delta-T
°C
Wind Press
QNH
hPa
Press
MSL
hPa
Rain since
9am
mm
Dir  Spd
km/h
Gust
km/h
Spd
kts
Gust
kts
10/08:00am 26.4 28.4 20.7 71 3.7 ENE 11 17 6 9 1014.8 1014.7 0.0
10/07:30am 25.3 28.3 20.8 76 3.0 E 6 7 3 4 1014.9 1014.8 0.0
10/07:00am 24.3 26.9 20.4 79 2.5 E 7 11 4 6 1014.3 1014.2 0.0
10/06:30am 24.1 27.1 20.8 82 2.2 E 6 7 3 4 1014.1 1014.0 0.0
10/06:00am 24.2 28.4 20.9 82 2.2 CALM 0 0 0 0 1014.0 1013.9 0.0
10/05:30am 24.6 28.8 20.9 80 2.4 CALM 0 0 0 0 1013.5 1013.4 0.0
10/05:00am 24.5 28.6 20.8 80 2.4 CALM 0 6 0 3 1013.1 1013.0 0.0
10/04:30am 24.5 27.5 20.8 80 2.4 ESE 6 7 3 4 1012.9 1012.8 0.0
10/04:00am 24.5 27.6 20.2 77 2.8 ESE 4 7 2 4 1013.0 1012.9 0.0
10/03:30am 24.6 27.0 20.1 76 2.9 ESE 7 9 4 5 1013.2 1013.1 0.0
10/03:00am 24.4 27.0 20.1 77 2.8 NE 6 6 3 3 1013.2 1013.1 0.0
10/02:30am 24.4 27.4 20.1 77 2.8 E 4 7 2 4 1013.5 1013.4 0.0
10/02:00am 24.5 27.7 20.4 78 2.7 ESE 4 6 2 3 1013.5 1013.4 0.0
10/01:30am 24.7 27.4 20.2 76 2.9 ENE 6 9 3 5 1013.9 1013.8 0.0
10/01:00am 24.8 27.0 20.5 77 2.8 ENE 9 22 5 12 1014.3 1014.2 0.0
10/12:30am 25.6 28.2 20.4 73 3.4 SSE 7 9 4 5 1014.1 1014.0 0.0
10/12:00am 25.8 28.1 20.6 73 3.4 S 9 15 5 8 1014.0 1013.9 0.0
 
Date/Time
EST
Temp
°C
App
Temp
°C
Dew
Point
°C
Rel
Hum
%
Delta-T
°C
Wind Press
QNH
hPa
Press
MSL
hPa
Rain since
9am
mm
Dir  Spd
km/h
Gust
km/h
Spd
kts
Gust
kts
09/11:30pm 26.0 29.2 21.7 77 2.9 SSW 7 9 4 5 1014.1 1014.0 0.0
09/11:00pm 26.7 30.2 21.9 75 3.2 SE 6 9 3 5 1014.2 1014.1 0.0
09/10:30pm 26.5 30.0 22.1 77 3.0 SSW 7 9 4 5 1014.6 1014.5 0.0
09/10:00pm 26.8 30.4 22.4 77 3.0 S 7 9 4 5 1014.5 1014.4 0.0
09/09:30pm 27.0 30.4 22.0 74 3.4 SSW 7 11 4 6 1014.6 1014.5 0.0
09/09:00pm 27.3 30.1 21.6 71 3.8 SSW 9 13 5 7 1014.5 1014.4 0.0
09/08:30pm 27.6 29.5 21.4 69 4.1 SSW 13 17 7 9 1014.1 1014.0 0.0
09/08:00pm 28.2 31.5 21.5 67 4.5 SW 6 6 3 3 1013.6 1013.5 0.0
09/07:59pm 28.2 31.5 21.5 67 4.5 SW 6 6 3 3 1013.5 1013.4 0.0
09/07:46pm 28.5 31.5 20.8 63 5.1 SSW 6 7 3 4 1013.4 1013.3 0.0
09/07:30pm 28.9 32.0 21.1 62 5.2 S 6 7 3 4 1013.1 1013.0 0.0
09/07:00pm 28.9 31.6 20.6 61 5.5 SSW 7 7 4 4 1012.9 1012.8 0.0
09/06:30pm 29.6 31.8 19.6 55 6.5 SSE 7 9 4 5 1012.4 1012.3 0.0
09/06:00pm 30.5 32.8 19.8 52 7.0 S 7 9 4 5 1012.1 1012.0 0.0
09/05:30pm 31.6 33.6 19.2 47 8.1 S 7 11 4 6 1011.8 1011.7 0.0
09/05:00pm 31.8 33.4 19.1 47 8.3 SSE 9 11 5 6 1011.7 1011.6 0.0
09/04:30pm 32.1 33.9 18.3 44 8.9 ESE 6 11 3 6 1011.5 1011.4 0.0
09/04:00pm 32.5 34.1 17.9 41 9.4 ENE 6 13 3 7 1011.4 1011.3 0.0
09/03:30pm 32.5 32.3 16.8 39 9.9 E 13 19 7 10 1011.2 1011.1 0.0
09/03:00pm 33.4 33.0 16.3 36 10.8 E 13 20 7 11 1011.1 1011.0 0.0
09/02:30pm 33.6 33.9 16.9 37 10.6 E 11 19 6 10 1011.3 1011.2 0.0
09/02:00pm 33.4 33.2 16.7 36 10.6 ESE 13 26 7 14 1011.8 1011.7 0.0
09/01:30pm 32.9 33.2 17.1 39 10.1 ESE 11 26 6 14 1012.2 1012.1 0.0
09/01:00pm 32.2 32.0 15.7 37 10.3 SE 11 20 6 11 1012.6 1012.5 0.0
09/12:30pm 32.2 33.3 18.0 42 9.1 ENE 9 17 5 9 1013.1 1013.0 0.0
09/12:00pm 32.1 32.6 18.3 44 8.9 NE 13 20 7 11 1013.5 1013.4 0.0
09/11:30am 31.4 31.7 18.7 46 8.2 NE 15 28 8 15 1014.1 1014.0 0.0
09/11:00am 30.1 30.0 18.8 50 7.3 ENE 17 24 9 13 1014.4 1014.3 0.0
09/10:30am 29.6 29.9 18.7 52 7.0 ENE 15 22 8 12 1014.6 1014.5 0.0
09/10:00am 28.8 29.6 19.1 55 6.3 E 13 19 7 10 1014.8 1014.7 0.0
09/09:30am 28.0 27.9 18.7 57 6.0 ENE 17 24 9 13 1015.2 1015.1 0.0
09/09:00am 27.5 27.5 18.2 57 5.9 ENE 15 24 8 13 1015.4 1015.3 0.0
09/08:30am 26.5 27.1 18.6 62 5.0 ENE 13 19 7 10 1015.2 1015.1 0.0
09/08:00am 25.7 27.2 18.9 66 4.3 E 9 15 5 8 1014.9 1014.8 0.0
09/07:30am 25.0 27.1 18.9 69 3.9 E 6 11 3 6 1014.5 1014.4 0.0
09/07:00am 23.9 25.7 18.8 73 3.2 E 7 9 4 5 1013.7 1013.6 0.0
09/06:30am 24.1 26.0 18.5 71 3.5 ENE 6 9 3 5 1013.4 1013.3 0.0
09/06:00am 24.7 26.4 18.6 69 3.9 ENE 7 11 4 6 1013.2 1013.1 0.0
09/05:30am 24.7 26.9 19.5 73 3.3 ENE 7 11 4 6 1012.8 1012.7 0.0
09/05:00am 25.1 27.3 20.4 75 3.1 ENE 9 17 5 9 1012.4 1012.3 0.0
09/04:30am 24.9 28.2 21.4 81 2.3 NE 6 9 3 5 1012.1 1012.0 0.0
09/04:00am 25.3 29.2 21.2 78 2.7 N 2 6 1 3 1012.3 1012.2 0.0
09/03:30am 25.6 30.1 21.5 78 2.7 CALM 0 0 0 0 1012.3 1012.2 0.0
09/03:00am 25.8 29.3 21.9 79 2.6 N 6 7 3 4 1012.7 1012.6 0.0
09/02:30am 25.9 29.6 22.6 82 2.2 NE 7 11 4 6 1012.6 1012.5 0.0
09/02:00am 25.7 29.9 23.2 86 1.7 NE 6 9 3 5 1012.8 1012.7 0.0
09/01:30am 25.5 29.9 23.4 88 1.4 NE 6 9 3 5 1012.9 1012.8 0.0
09/01:00am 25.4 29.5 23.3 88 1.4 ENE 7 9 4 5 1012.9 1012.8 0.0
09/12:30am 25.7 31.1 23.2 86 1.7 CALM 0 0 0 0 1013.1 1013.0 0.0
09/12:00am 25.9 31.3 23.2 85 1.8 CALM 0 4 0 2 1013.0 1012.9 0.0
 
Date/Time
EST
Temp
°C
App
Temp
°C
Dew
Point
°C
Rel
Hum
%
Delta-T
°C
Wind Press
QNH
hPa
Press
MSL
hPa
Rain since
9am
mm
Dir  Spd
km/h
Gust
km/h
Spd
kts
Gust
kts
08/11:30pm 25.8 31.0 22.9 84 2.0 CALM 0 0 0 0 1013.1 1013.0 0.0
08/11:00pm 26.2 31.4 22.9 82 2.2 CALM 0 6 0 3 1013.0 1012.9 0.0
08/10:30pm 26.0 30.0 22.7 82 2.2 SSW 6 7 3 4 1013.0 1012.9 0.0
08/10:00pm 26.4 30.4 22.7 80 2.5 SW 6 7 3 4 1013.2 1013.1 0.0
08/09:30pm 26.7 30.4 22.5 78 2.8 SSW 7 11 4 6 1013.0 1012.9 0.0
08/09:00pm 27.0 30.3 22.6 77 3.0 SSW 9 15 5 8 1012.6 1012.5 0.0
08/08:30pm 27.1 30.7 23.1 79 2.7 WSW 9 13 5 7 1012.2 1012.1 0.0
08/08:00pm 27.3 32.0 23.3 79 2.7 NW 4 6 2 3 1011.7 1011.6 0.0
08/07:30pm 27.7 32.8 22.6 74 3.5 CALM 0 0 0 0 1011.2 1011.1 0.0
08/07:00pm 28.3 33.3 22.5 71 3.9 CALM 0 0 0 0 1010.8 1010.7 0.0
08/06:30pm 28.9 33.8 22.4 68 4.4 CALM 0 0 0 0 1010.5 1010.4 0.0
08/06:00pm 30.7 34.6 21.2 57 6.4 ESE 2 6 1 3 1010.3 1010.2 0.0
08/05:30pm 31.4 34.1 20.7 53 7.1 SSE 7 11 4 6 1010.0 1009.9 0.0
08/05:00pm 31.7 33.6 20.6 51 7.4 ESE 11 15 6 8 1009.8 1009.7 0.0
08/04:30pm 32.6 33.9 20.2 48 8.2 SE 13 17 7 9 1009.6 1009.5 0.0
08/04:00pm 32.1 34.3 20.4 50 7.8 E 9 13 5 7 1009.6 1009.5 0.0
08/03:30pm 31.6 33.8 20.5 51 7.4 E 9 15 5 8 1009.5 1009.4 0.0
08/03:00pm 32.1 33.3 20.0 48 8.0 ESE 13 19 7 10 1009.5 1009.4 0.0
08/02:30pm 32.5 33.6 19.7 46 8.4 ENE 13 20 7 11 1009.7 1009.6 0.0
08/02:00pm 32.5 33.8 20.1 48 8.2 E 13 20 7 11 1010.0 1009.9 0.0
08/01:30pm 31.9 33.1 19.9 49 7.9 E 13 20 7 11 1010.3 1010.2 0.0
08/01:00pm 31.7 32.7 20.3 50 7.6 E 15 22 8 12 1010.8 1010.7 0.0
08/12:30pm 31.5 32.2 20.4 51 7.4 E 17 24 9 13 1011.3 1011.2 0.0
08/12:00pm 31.8 33.3 21.3 53 7.1 E 15 26 8 14 1011.8 1011.7 0.0
08/11:30am 31.3 32.8 21.2 55 6.8 ENE 15 22 8 12 1012.2 1012.1 0.0
08/11:00am 30.8 32.5 21.6 58 6.2 ENE 15 20 8 11 1012.6 1012.5 0.0
08/10:30am 29.3 30.1 21.3 62 5.3 ENE 19 28 10 15 1012.7 1012.6 0.0
08/10:00am 29.2 30.3 21.2 62 5.3 ENE 17 28 9 15 1012.8 1012.7 0.0
08/09:30am 28.3 29.2 20.8 63 5.0 ENE 17 28 9 15 1012.9 1012.8 0.0
08/09:00am 28.1 29.7 21.4 67 4.5 ENE 15 24 8 13 1012.6 1012.5 0.0
08/08:30am 26.9 28.6 21.0 70 3.9 ENE 13 22 7 12 1012.4 1012.3 0.0
08/08:00am 25.6 28.4 21.5 78 2.7 E 9 15 5 8 1012.1 1012.0 0.0
08/07:30am 25.0 28.4 21.7 82 2.2 E 6 11 3 6 1011.5 1011.4 0.0
08/07:00am 23.8 26.9 21.5 87 1.5 ENE 7 11 4 6 1010.9 1010.8 0.0
08/06:30am 23.5 26.6 21.4 88 1.4 E 7 11 4 6 1010.6 1010.5 0.0
08/06:00am 23.6 26.8 21.3 87 1.5 E 6 7 3 4 1010.3 1010.2 0.0
08/05:30am 23.6 26.8 21.3 87 1.5 SE 6 7 3 4 1010.3 1010.2 0.0
08/05:00am 23.6 26.7 21.1 86 1.6 E 6 7 3 4 1010.1 1010.0 0.0
08/04:30am 23.7 27.0 20.8 84 1.9 ENE 4 7 2 4 1010.1 1010.0 0.0
08/04:00am 23.8 27.5 20.7 83 2.0 E 2 6 1 3 1010.0 1009.9 0.0
08/03:30am 24.1 27.5 20.2 79 2.5 ENE 2 6 1 3 1010.1 1010.0 0.0
08/03:00am 24.3 26.9 20.0 77 2.8 ENE 6 7 3 4 1010.4 1010.3 0.0
08/02:30am 24.5 26.5 20.0 76 2.9 ENE 9 15 5 8 1010.6 1010.5 0.0
08/02:00am 24.1 26.9 20.8 82 2.2 NE 7 11 4 6 1011.0 1010.9 0.0
08/01:30am 24.4 26.4 20.7 80 2.4 ENE 11 17 6 9 1011.4 1011.3 0.0
08/01:00am 24.8 26.2 20.3 76 2.9 ENE 13 24 7 13 1011.9 1011.8 0.0
08/12:57am 24.8 25.8 20.3 76 2.9 ENE 15 24 8 13 1012.0 1011.9 0.0
08/12:37am 25.4 28.4 22.7 85 1.8 ESE 11 19 6 10 1012.3 1012.2 0.0
08/12:30am 25.4 28.8 22.7 85 1.8 ESE 9 13 5 7 1012.2 1012.1 0.0
08/12:00am 25.4 28.7 22.5 84 2.0 ENE 9 13 5 7 1012.1 1012.0 0.0
 
Date/Time
EST
Temp
°C
App
Temp
°C
Dew
Point
°C
Rel
Hum
%
Delta-T
°C
Wind Press
QNH
hPa
Press
MSL
hPa
Rain since
9am
mm
Dir  Spd
km/h
Gust
km/h
Spd
kts
Gust
kts
07/11:30pm 25.9 29.6 22.6 82 2.2 E 7 11 4 6 1011.9 1011.8 0.0
07/11:00pm 27.3 29.7 22.3 74 3.4 E 13 19 7 10 1011.6 1011.5 0.0
07/10:30pm 27.2 30.3 22.2 74 3.4 S 9 11 5 6 1011.3 1011.2 0.0
07/10:00pm 27.2 30.3 22.2 74 3.4 SSW 9 13 5 7 1011.2 1011.1 0.0
07/09:30pm 27.4 31.2 22.8 76 3.1 SW 7 11 4 6 1011.2 1011.1 0.0
07/09:00pm 27.5 31.8 23.3 78 2.9 SW 6 7 3 4 1011.1 1011.0 0.0
07/08:30pm 27.6 31.6 22.8 75 3.3 W 6 7 3 4 1010.7 1010.6 0.0
07/08:00pm 27.7 31.6 22.9 75 3.3 W 7 9 4 5 1010.4 1010.3 0.0
07/07:30pm 28.0 31.4 22.7 73 3.6 WNW 9 9 5 5 1010.1 1010.0 0.0
07/07:00pm 28.5 32.4 22.5 70 4.1 N 6 7 3 4 1009.9 1009.8 0.0
07/06:30pm 29.0 32.4 22.7 69 4.3 SW 9 13 5 7 1009.5 1009.4 0.0
07/06:00pm 30.2 33.7 22.1 62 5.5 WSW 7 15 4 8 1009.3 1009.2 0.0
07/05:30pm 30.5 34.0 21.9 60 5.8 WNW 6 9 3 5 1009.2 1009.1 0.0
07/05:00pm 30.4 33.6 21.2 58 6.2 S 6 9 3 5 1009.0 1008.9 0.0
07/04:30pm 30.5 34.0 22.1 61 5.7 SW 7 11 4 6 1009.1 1009.0 0.0
07/04:00pm 30.8 34.4 21.3 57 6.4 NE 4 7 2 4 1009.1 1009.0 0.0
07/03:30pm 32.0 33.8 20.3 50 7.8 SE 11 13 6 7 1008.9 1008.8 0.0
07/03:00pm 33.0 35.7 20.2 47 8.5 S 6 11 3 6 1009.1 1009.0 0.0
07/02:30pm 32.2 34.2 20.8 51 7.6 ENE 11 17 6 9 1009.4 1009.3 0.0
07/02:00pm 32.2 33.1 20.1 48 8.0 ESE 15 20 8 11 1009.6 1009.5 0.0
07/01:30pm 32.6 34.1 20.5 49 8.1 ENE 13 20 7 11 1010.1 1010.0 0.0
07/01:00pm 31.7 32.3 20.3 50 7.6 ENE 17 30 9 16 1010.5 1010.4 0.0
07/12:30pm 32.6 33.9 20.8 49 7.9 ENE 15 24 8 13 1010.8 1010.7 0.0
07/12:00pm 31.7 32.9 21.5 54 6.9 ENE 17 26 9 14 1011.3 1011.2 0.0
07/11:30am 31.6 33.2 20.8 52 7.2 E 13 22 7 12 1011.8 1011.7 0.0
07/11:00am 31.3 32.4 21.2 55 6.8 E 17 26 9 14 1012.0 1011.9 0.0
07/10:30am 29.9 30.5 20.2 56 6.4 ENE 17 28 9 15 1012.3 1012.2 0.0
07/10:00am 29.3 30.9 20.7 59 5.7 ENE 13 22 7 12 1012.5 1012.4 0.0
07/09:30am 29.4 30.4 20.3 58 6.0 E 15 22 8 12 1012.8 1012.7 0.0
07/09:00am 28.3 29.8 19.8 60 5.5 E 11 20 6 11 1012.7 1012.6 0.2
07/08:30am 27.1 30.3 21.6 72 3.7 E 7 9 4 5 1012.3 1012.2 0.2

Other formats

Comma delimited format used in spreadsheet applications
http://www.bom.gov.au/fwo/IDQ60801/IDQ60801.94268.axf

JavaScript Object Notation format (JSON) in row-major order
http://www.bom.gov.au/fwo/IDQ60801/IDQ60801.94268.json

Data quality

Most of these data are generated automatically and are frequently updated. Quality checks on data are not normally performed. It is possible for incorrect values to appear. Refer to information at About Latest Weather Observations and please check the disclaimer before using these data.